Time;durP1;ratioP1;P1;durP2;ratioP2;P2;SDS_P1;SDS_P2;PMS_P1;PMS_P2;Temp;Humidity;BMP_temperature;BMP_pressure;BME280_temperature;BME280_humidity;BME280_pressure;Samples;Min_cycle;Max_cycle;Signal;HPM_P1;HPM_P2
2023/06/23 00:00:33;;;;;;;;;;;;;;;15.98;70.15;101333.88;109120;1254;67016;-84
2023/06/23 00:03:22;;;;;;;;;;;;;;;15.95;70.17;101331.73;109109;1254;74600;-84
2023/06/23 00:05:57;;;;;;;;;;;;;;;15.91;70.21;101328.30;107770;1254;124119;-84
2023/06/23 00:08:24;;;;;;;;;;;;;;;15.87;70.31;101327.20;107703;1260;60531;-84
2023/06/23 00:10:51;;;;;;;;;;;;;;;15.83;70.41;101328.02;107667;1254;123917;-83
2023/06/23 00:13:21;;;;;;;;;;;;;;;15.81;70.55;101327.46;107640;1253;65746;-83
2023/06/23 00:15:49;;;;;;;;;;;;;;;15.78;70.61;101328.85;107562;1255;71383;-84
2023/06/23 00:18:16;;;;;;;;;;;;;;;15.76;70.76;101326.71;107763;1254;123897;-83
2023/06/23 00:20:45;;;;;;;;;;;;;;;15.73;70.80;101331.79;107805;1254;58868;-83
2023/06/23 00:23:18;;;;;;;;;;;;;;;15.70;70.92;101343.41;107649;1254;125237;-84
2023/06/23 00:25:45;;;;;;;;;;;;;;;15.67;70.96;101349.56;108253;1254;67219;-85
2023/06/23 00:28:11;;;;;;;;;;;;;;;15.66;71.13;101352.02;107339;1261;126491;-86
2023/06/23 00:30:38;;;;;;;;;;;;;;;15.65;71.18;101345.80;107525;1254;60578;-85
2023/06/23 00:33:05;;;;;;;;;;;;;;;15.66;71.35;101340.15;107499;1254;60217;-85
2023/06/23 00:35:32;;;;;;;;;;;;;;;15.66;71.36;101342.27;108075;1254;124763;-84
2023/06/23 00:37:59;;;;;;;;;;;;;;;15.67;71.45;101346.17;108441;1257;67151;-84
2023/06/23 00:40:28;;;;;;;;;;;;;;;15.67;71.53;101347.62;107688;1254;125013;-82
2023/06/23 00:42:55;;;;;;;;;;;;;;;15.69;71.51;101347.27;108209;1254;58423;-83
2023/06/23 00:45:23;;;;;;;;;;;;;;;15.71;71.67;101347.30;108392;1254;60166;-84
2023/06/23 00:47:50;;;;;;;;;;;;;;;15.72;71.62;101344.15;107879;1254;125021;-85
2023/06/23 00:50:20;;;;;;;;;;;;;;;15.72;71.59;101339.90;107801;1254;67032;-85
2023/06/23 00:52:51;;;;;;;;;;;;;;;15.74;71.66;101337.46;107618;1254;124621;-84
2023/06/23 00:55:30;;;;;;;;;;;;;;;15.77;71.75;101330.61;107807;1256;60434;-84
2023/06/23 00:57:57;;;;;;;;;;;;;;;15.74;71.64;101328.45;107646;1254;59453;-84
2023/06/23 01:00:24;;;;;;;;;;;;;;;15.73;71.68;101336.39;107602;1254;73889;-82
2023/06/23 01:02:52;;;;;;;;;;;;;;;15.74;71.69;101344.02;107612;1258;67030;-82
2023/06/23 01:05:22;;;;;;;;;;;;;;;15.76;71.74;101345.11;107532;1254;124662;-83
2023/06/23 01:08:03;;;;;;;;;;;;;;;15.77;71.67;101340.52;107801;1254;59744;-83
2023/06/23 01:10:43;;;;;;;;;;;;;;;15.77;71.59;101330.08;107632;1254;125310;-83
2023/06/23 01:13:15;;;;;;;;;;;;;;;15.76;71.54;101321.75;107360;1254;73920;-84
2023/06/23 01:15:47;;;;;;;;;;;;;;;15.76;71.54;101321.21;107620;1254;67141;-84
2023/06/23 01:18:14;;;;;;;;;;;;;;;15.76;71.50;101308.84;107495;1258;125121;-84
2023/06/23 01:20:42;;;;;;;;;;;;;;;15.76;71.50;101300.70;107538;1254;59767;-84
2023/06/23 01:23:26;;;;;;;;;;;;;;;15.75;71.61;101292.38;107496;1259;125006;-83
2023/06/23 01:26:03;;;;;;;;;;;;;;;15.74;71.48;101291.27;107774;1254;74383;-83
2023/06/23 01:28:30;;;;;;;;;;;;;;;15.73;71.62;101285.98;107797;1254;125623;-83
2023/06/23 01:31:00;;;;;;;;;;;;;;;15.74;71.54;101288.62;109096;1254;71345;-83
2023/06/23 01:33:30;;;;;;;;;;;;;;;15.73;71.53;101289.66;108884;1254;58292;-84
2023/06/23 01:36:02;;;;;;;;;;;;;;;15.73;71.52;101298.33;108801;1254;125334;-84
2023/06/23 01:38:32;;;;;;;;;;;;;;;15.73;71.59;101296.02;108919;1257;73835;-84
2023/06/23 01:40:59;;;;;;;;;;;;;;;15.72;71.62;101290.00;108993;1254;125333;-84
2023/06/23 01:43:29;;;;;;;;;;;;;;;15.72;71.56;101287.37;108877;1254;70385;-85
2023/06/23 01:46:00;;;;;;;;;;;;;;;15.72;71.51;101287.69;108858;1255;58673;-84
2023/06/23 01:48:27;;;;;;;;;;;;;;;15.74;71.64;101287.77;108887;1254;60670;-84
2023/06/23 01:50:54;;;;;;;;;;;;;;;15.76;71.56;101287.25;108701;1254;74412;-84
2023/06/23 01:53:21;;;;;;;;;;;;;;;15.78;71.62;101289.23;108763;1254;125752;-83
2023/06/23 01:55:48;;;;;;;;;;;;;;;15.79;71.57;101293.12;108995;1254;72747;-83
2023/06/23 01:58:15;;;;;;;;;;;;;;;15.81;71.62;101293.33;108325;1257;124797;-84
2023/06/23 02:00:43;;;;;;;;;;;;;;;15.81;71.57;101292.25;107431;1254;60593;-84
2023/06/23 02:03:10;;;;;;;;;;;;;;;15.80;71.60;101294.71;107761;1254;72436;-84
2023/06/23 02:05:37;;;;;;;;;;;;;;;15.80;71.67;101296.30;107454;1253;125303;-84
2023/06/23 02:08:05;;;;;;;;;;;;;;;15.81;71.67;101291.73;107557;1254;70769;-84
2023/06/23 02:10:32;;;;;;;;;;;;;;;15.82;71.63;101288.02;107622;1254;125399;-84
2023/06/23 02:13:00;;;;;;;;;;;;;;;15.82;71.69;101285.90;107740;1254;60352;-84
2023/06/23 02:15:27;;;;;;;;;;;;;;;15.84;71.68;101282.55;107708;1254;74435;-83
2023/06/23 02:17:57;;;;;;;;;;;;;;;15.83;71.70;101280.08;107539;1254;124725;-86
2023/06/23 02:20:25;;;;;;;;;;;;;;;15.82;71.67;101288.20;107517;1254;72714;-86
2023/06/23 02:22:59;;;;;;;;;;;;;;;15.84;71.79;101288.23;107451;1253;124706;-86
2023/06/23 02:25:26;;;;;;;;;;;;;;;15.88;71.79;101290.75;107460;1254;59242;-84
2023/06/23 02:27:53;;;;;;;;;;;;;;;15.93;71.76;101297.71;107366;1254;73857;-84
2023/06/23 02:30:22;;;;;;;;;;;;;;;15.98;71.67;101300.78;107611;1253;125238;-83
2023/06/23 02:32:49;;;;;;;;;;;;;;;16.03;71.69;101307.73;107721;1254;72496;-84
2023/06/23 02:35:17;;;;;;;;;;;;;;;16.08;71.58;101303.55;107607;1253;124850;-84
2023/06/23 02:37:55;;;;;;;;;;;;;;;16.10;71.48;101300.56;107714;1254;60171;-84
2023/06/23 02:40:23;;;;;;;;;;;;;;;16.14;71.37;101298.12;107783;1254;125179;-83
2023/06/23 02:42:52;;;;;;;;;;;;;;;16.17;71.32;101295.50;107765;1259;65560;-84
2023/06/23 02:45:28;;;;;;;;;;;;;;;16.21;71.33;101293.95;107739;1254;70244;-83
2023/06/23 02:47:55;;;;;;;;;;;;;;;16.23;71.24;101289.19;107519;1254;124330;-83
2023/06/23 02:50:32;;;;;;;;;;;;;;;16.26;71.07;101289.04;107770;1260;60138;-83
2023/06/23 02:53:09;;;;;;;;;;;;;;;16.30;71.04;101293.70;107516;1259;123938;-83
2023/06/23 02:55:38;;;;;;;;;;;;;;;16.33;70.95;101289.83;107631;1259;67023;-83
2023/06/23 02:58:07;;;;;;;;;;;;;;;16.38;70.90;101289.69;107528;1254;124070;-84
2023/06/23 03:00:37;;;;;;;;;;;;;;;16.43;70.90;101291.67;107606;1254;60552;-84
2023/06/23 03:03:12;;;;;;;;;;;;;;;16.51;70.91;101292.48;107733;1254;60653;-84
2023/06/23 03:05:39;;;;;;;;;;;;;;;16.60;70.76;101288.13;107609;1253;124456;-83
2023/06/23 03:08:06;;;;;;;;;;;;;;;16.67;70.67;101282.16;107347;1254;67055;-83
2023/06/23 03:10:35;;;;;;;;;;;;;;;16.72;70.63;101282.38;107549;1257;124180;-83
2023/06/23 03:13:03;;;;;;;;;;;;;;;16.79;70.55;101284.57;107732;1254;59219;-83
2023/06/23 03:15:30;;;;;;;;;;;;;;;16.86;70.45;101283.59;107805;1254;59896;-83
2023/06/23 03:18:17;;;;;;;;;;;;;;;16.93;70.31;101281.67;107706;1254;124468;-83
2023/06/23 03:20:54;;;;;;;;;;;;;;;16.98;70.19;101273.91;107523;1254;65823;-83
2023/06/23 03:23:21;;;;;;;;;;;;;;;17.02;69.98;101263.66;107178;1254;123967;-83
2023/06/23 03:25:48;;;;;;;;;;;;;;;17.08;69.90;101257.51;107424;1254;60166;-83
2023/06/23 03:28:25;;;;;;;;;;;;;;;17.13;69.82;101252.04;107502;1259;124582;-83
2023/06/23 03:30:59;;;;;;;;;;;;;;;17.20;69.74;101242.51;107465;1254;72295;-85
2023/06/23 03:33:36;;;;;;;;;;;;;;;17.30;69.68;101238.11;107583;1254;67875;-85
2023/06/23 03:36:22;;;;;;;;;;;;;;;17.47;69.84;101238.55;107547;1254;124802;-83
2023/06/23 03:39:01;;;;;;;;;;;;;;;17.70;69.52;101232.26;107854;1253;58867;-83
2023/06/23 03:41:29;;;;;;;;;;;;;;;17.85;69.18;101226.12;107286;1254;124491;-83
2023/06/23 03:43:59;;;;;;;;;;;;;;;17.99;68.94;101228.11;107450;1252;73903;-83
2023/06/23 03:46:27;;;;;;;;;;;;;;;18.12;68.79;101233.45;107451;1254;125520;-82
2023/06/23 03:48:56;;;;;;;;;;;;;;;18.28;68.63;101242.54;107603;1253;71351;-84
2023/06/23 03:51:23;;;;;;;;;;;;;;;18.46;68.42;101239.89;107909;1256;60346;-83
2023/06/23 03:53:50;;;;;;;;;;;;;;;18.62;68.11;101242.73;107779;1254;123951;-83
2023/06/23 03:56:23;;;;;;;;;;;;;;;18.79;68.00;101235.98;107619;1254;72277;-83
2023/06/23 03:58:50;;;;;;;;;;;;;;;19.20;68.12;101236.09;107570;1254;124178;-84
2023/06/23 04:01:19;;;;;;;;;;;;;;;19.86;68.04;101228.52;108978;1253;71260;-84
2023/06/23 04:03:47;;;;;;;;;;;;;;;20.69;67.46;101216.70;108064;1253;59538;-83
2023/06/23 04:06:14;;;;;;;;;;;;;;;21.88;67.20;101214.80;107905;1256;124142;-84
2023/06/23 04:08:41;;;;;;;;;;;;;;;23.17;65.49;101211.02;107553;1257;72576;-83
2023/06/23 04:11:14;;;;;;;;;;;;;;;24.25;63.74;101214.07;107780;1253;123981;-84
2023/06/23 04:13:41;;;;;;;;;;;;;;;25.34;61.92;101207.27;108001;1253;72736;-86
2023/06/23 04:16:08;;;;;;;;;;;;;;;26.23;60.24;101206.91;107372;1253;124596;-86
2023/06/23 04:18:36;;;;;;;;;;;;;;;26.51;57.79;101205.78;107607;1253;58525;-84
2023/06/23 04:21:08;;;;;;;;;;;;;;;26.88;57.49;101201.48;107653;1254;73544;-85
2023/06/23 04:23:35;;;;;;;;;;;;;;;28.07;57.01;101202.73;107819;1254;313913;-87
2023/06/23 04:26:02;;;;;;;;;;;;;;;28.81;54.53;101203.81;108123;1254;62627;-86
2023/06/23 04:28:29;;;;;;;;;;;;;;;28.51;52.34;101203.46;107822;1254;124516;-82
2023/06/23 04:30:56;;;;;;;;;;;;;;;27.88;51.67;101199.73;108095;1254;60279;-84
2023/06/23 04:33:23;;;;;;;;;;;;;;;27.24;51.13;101192.77;108314;1254;73483;-82
2023/06/23 04:35:50;;;;;;;;;;;;;;;26.75;51.25;101188.06;107993;1254;124073;-83
2023/06/23 04:38:18;;;;;;;;;;;;;;;26.27;50.90;101185.38;107742;1253;73185;-83
2023/06/23 04:40:54;;;;;;;;;;;;;;;25.76;51.07;101185.93;107691;1254;124558;-84
2023/06/23 04:43:26;;;;;;;;;;;;;;;25.39;51.30;101185.77;108371;1254;60021;-86
2023/06/23 04:45:56;;;;;;;;;;;;;;;25.12;51.39;101189.55;108305;1253;74391;-86
2023/06/23 04:48:24;;;;;;;;;;;;;;;24.85;51.51;101190.68;108242;1257;124253;-87
2023/06/23 04:50:53;;;;;;;;;;;;;;;24.53;51.61;101193.86;108225;1254;70883;-85
2023/06/23 04:53:21;;;;;;;;;;;;;;;24.20;51.71;101187.85;107904;1254;124218;-84
2023/06/23 04:55:49;;;;;;;;;;;;;;;23.87;52.06;101188.45;107967;1254;60342;-82
2023/06/23 04:58:16;;;;;;;;;;;;;;;23.57;52.40;101176.55;107920;1253;124067;-83
2023/06/23 05:00:43;;;;;;;;;;;;;;;23.29;53.03;101176.80;107932;1257;65234;-82
2023/06/23 05:03:10;;;;;;;;;;;;;;;23.06;53.38;101178.71;107817;1257;72520;-83
2023/06/23 05:05:37;;;;;;;;;;;;;;;22.85;53.68;101180.14;107796;1254;58829;-84
2023/06/23 05:08:05;;;;;;;;;;;;;;;22.68;53.78;101189.05;107448;1254;60943;-87
2023/06/23 05:10:33;;;;;;;;;;;;;;;22.52;53.86;101198.10;107516;1254;124353;-82
2023/06/23 05:13:08;;;;;;;;;;;;;;;22.41;54.00;101208.48;107603;1253;65204;-90
2023/06/23 05:15:35;;;;;;;;;;;;;;;22.33;54.44;101208.09;107956;1254;71097;-83
2023/06/23 05:18:03;;;;;;;;;;;;;;;22.27;54.70;101210.32;107646;1254;123961;-83
2023/06/23 05:20:31;;;;;;;;;;;;;;;22.25;55.06;101209.45;107953;1253;59743;-83
2023/06/23 05:23:02;;;;;;;;;;;;;;;22.26;55.02;101209.98;107988;1254;124222;-82
2023/06/23 05:25:30;;;;;;;;;;;;;;;22.26;55.30;101211.77;107937;1253;65527;-83
2023/06/23 05:28:00;;;;;;;;;;;;;;;22.29;55.58;101204.39;107766;1253;73048;-83
2023/06/23 05:30:27;;;;;;;;;;;;;;;22.34;55.50;101200.92;107578;1256;124081;-83
2023/06/23 05:32:55;;;;;;;;;;;;;;;22.35;55.24;101199.82;107687;1254;60093;-82
2023/06/23 05:35:23;;;;;;;;;;;;;;;22.38;55.13;101197.63;107469;1253;124110;-85
2023/06/23 05:37:51;;;;;;;;;;;;;;;22.41;54.81;101200.98;107643;1254;67669;-84
2023/06/23 05:40:17;;;;;;;;;;;;;;;22.42;54.53;101201.86;107677;1254;124621;-85
2023/06/23 05:42:48;;;;;;;;;;;;;;;22.43;54.43;101204.52;107768;1254;60606;-82
2023/06/23 05:45:17;;;;;;;;;;;;;;;22.40;54.46;101204.21;108214;1256;60505;-83
2023/06/23 05:47:46;;;;;;;;;;;;;;;22.37;54.33;101211.05;108007;1253;124331;-86
2023/06/23 05:50:33;;;;;;;;;;;;;;;22.33;54.26;101201.46;107848;1254;66335;-84
2023/06/23 05:53:07;;;;;;;;;;;;;;;22.28;53.92;101198.67;109065;1253;123996;-83
2023/06/23 05:55:42;;;;;;;;;;;;;;;22.28;53.95;101195.29;109080;1253;58520;-81
2023/06/23 05:58:09;;;;;;;;;;;;;;;22.26;53.74;101193.36;108934;1254;124523;-85
2023/06/23 06:00:41;;;;;;;;;;;;;;;22.27;53.81;101188.70;108107;1254;73760;-83
2023/06/23 06:03:09;;;;;;;;;;;;;;;22.29;54.00;101188.29;107919;1254;66930;-88
2023/06/23 06:05:47;;;;;;;;;;;;;;;22.31;54.09;101178.79;108134;1253;123920;-89
2023/06/23 06:08:14;;;;;;;;;;;;;;;22.33;54.23;101172.52;108207;1254;60504;-86
2023/06/23 06:10:41;;;;;;;;;;;;;;;22.36;54.26;101172.11;108132;1254;124775;-84
2023/06/23 06:13:08;;;;;;;;;;;;;;;22.39;54.40;101167.94;108222;1252;73903;-86
2023/06/23 06:15:35;;;;;;;;;;;;;;;22.40;54.33;101167.73;107845;1253;68148;-84
2023/06/23 06:18:04;;;;;;;;;;;;;;;22.45;54.37;101161.75;107803;1253;124349;-84
2023/06/23 06:20:34;;;;;;;;;;;;;;;22.51;54.19;101158.59;107899;1254;58626;-83
2023/06/23 06:23:02;;;;;;;;;;;;;;;22.59;54.28;101155.96;107719;1254;124460;-84
2023/06/23 06:25:31;;;;;;;;;;;;;;;22.66;54.10;101151.69;107870;1257;72592;-84
2023/06/23 06:27:58;;;;;;;;;;;;;;;22.73;54.09;101143.70;107943;1254;64860;-84
2023/06/23 06:30:32;;;;;;;;;;;;;;;22.86;53.84;101133.96;107977;1256;124384;-84
2023/06/23 06:33:00;;;;;;;;;;;;;;;22.99;53.44;101137.11;107914;1253;60332;-85
2023/06/23 06:35:28;;;;;;;;;;;;;;;23.16;52.93;101132.14;107605;1260;124601;-85
2023/06/23 06:37:55;;;;;;;;;;;;;;;23.31;52.70;101128.94;107943;1254;72767;-85
2023/06/23 06:40:28;;;;;;;;;;;;;;;23.50;52.51;101127.82;107823;1254;124238;-85
2023/06/23 06:42:55;;;;;;;;;;;;;;;23.68;52.11;101124.34;107679;1253;72716;-87
2023/06/23 06:45:22;;;;;;;;;;;;;;;23.81;51.51;101119.58;107613;1253;58761;-85
2023/06/23 06:47:49;;;;;;;;;;;;;;;23.88;51.03;101118.90;107592;1254;123943;-85
2023/06/23 06:50:22;;;;;;;;;;;;;;;23.92;50.54;101119.33;107609;1254;73944;-84
2023/06/23 06:52:51;;;;;;;;;;;;;;;23.88;49.96;101119.26;107563;1254;124299;-83
2023/06/23 06:55:31;;;;;;;;;;;;;;;23.80;49.35;101118.55;107857;1254;72699;-84
2023/06/23 06:57:59;;;;;;;;;;;;;;;23.73;49.32;101117.27;108098;1252;60457;-84
2023/06/23 07:00:30;;;;;;;;;;;;;;;23.74;49.39;101113.81;108007;1254;62168;-81
2023/06/23 07:02:57;;;;;;;;;;;;;;;23.80;49.10;101117.65;107971;1252;74150;-81
2023/06/23 07:05:24;;;;;;;;;;;;;;;23.79;48.78;101118.55;108068;1254;123918;-81
2023/06/23 07:07:51;;;;;;;;;;;;;;;23.74;48.62;101125.99;108140;1254;72713;-82
2023/06/23 07:10:18;;;;;;;;;;;;;;;23.71;48.31;101128.59;107962;1254;124000;-84
2023/06/23 07:12:45;;;;;;;;;;;;;;;23.65;47.87;101127.46;108033;1254;60002;-85
2023/06/23 07:15:12;;;;;;;;;;;;;;;23.65;48.02;101131.95;107891;1254;73907;-85
2023/06/23 07:17:54;;;;;;;;;;;;;;;23.71;48.17;101130.92;107461;1254;123969;-85
2023/06/23 07:20:21;;;;;;;;;;;;;;;23.76;48.05;101132.60;107820;1254;71460;-85
2023/06/23 07:22:49;;;;;;;;;;;;;;;23.85;48.02;101132.21;107620;1253;124553;-85
2023/06/23 07:25:16;;;;;;;;;;;;;;;23.92;47.90;101134.75;107757;1254;60291;-85
2023/06/23 07:27:47;;;;;;;;;;;;;;;24.06;48.04;101135.13;107496;1254;74431;-85
2023/06/23 07:30:15;;;;;;;;;;;;;;;24.16;47.91;101137.55;107797;1253;124273;-86
2023/06/23 07:32:52;;;;;;;;;;;;;;;24.25;47.75;101147.22;107918;1254;72985;-85
2023/06/23 07:35:19;;;;;;;;;;;;;;;24.39;47.54;101153.11;108100;1259;124173;-84
2023/06/23 07:37:46;;;;;;;;;;;;;;;24.55;47.40;101160.26;108113;1254;59628;-84
2023/06/23 07:40:13;;;;;;;;;;;;;;;24.76;47.24;101163.11;107780;1256;124115;-85
2023/06/23 07:42:40;;;;;;;;;;;;;;;24.97;46.89;101170.23;107940;1254;65495;-85
2023/06/23 07:45:08;;;;;;;;;;;;;;;25.20;46.68;101176.98;108080;1254;70394;-87
2023/06/23 07:47:36;;;;;;;;;;;;;;;25.46;46.51;101179.62;107622;1254;123942;-86
2023/06/23 07:50:04;;;;;;;;;;;;;;;25.71;46.46;101181.20;107795;1255;59036;-84
2023/06/23 07:52:31;;;;;;;;;;;;;;;25.90;46.24;101186.92;108130;1254;124153;-85
2023/06/23 07:54:58;;;;;;;;;;;;;;;26.01;45.80;101190.36;108113;1253;65672;-85
2023/06/23 07:57:25;;;;;;;;;;;;;;;26.07;45.60;101195.37;107391;1254;72546;-85
2023/06/23 07:59:53;;;;;;;;;;;;;;;26.09;45.29;101198.92;107335;1253;124152;-85
2023/06/23 08:02:21;;;;;;;;;;;;;;;26.02;44.74;101199.52;107842;1254;60805;-85
2023/06/23 08:04:56;;;;;;;;;;;;;;;25.90;44.80;101204.90;107809;1254;124152;-86
2023/06/23 08:07:29;;;;;;;;;;;;;;;25.80;44.75;101203.21;107630;1253;67110;-84
2023/06/23 08:09:57;;;;;;;;;;;;;;;25.69;44.59;101209.13;107574;1254;71096;-84
2023/06/23 08:12:39;;;;;;;;;;;;;;;25.63;44.57;101211.81;107786;1254;124374;-85
2023/06/23 08:15:06;;;;;;;;;;;;;;;25.60;44.74;101212.80;107834;1254;60380;-84
2023/06/23 08:17:34;;;;;;;;;;;;;;;25.59;44.68;101218.61;107888;1254;123916;-84
2023/06/23 08:20:01;;;;;;;;;;;;;;;25.56;44.64;101229.45;107925;1254;66868;-85
2023/06/23 08:22:28;;;;;;;;;;;;;;;25.56;44.76;101228.39;108155;1254;124172;-85
2023/06/23 08:24:55;;;;;;;;;;;;;;;25.53;44.59;101235.14;108079;1256;61390;-85
2023/06/23 08:27:22;;;;;;;;;;;;;;;25.48;44.38;101239.41;107682;1254;60458;-84
2023/06/23 08:29:49;;;;;;;;;;;;;;;25.43;44.23;101243.52;107779;1254;124553;-86
2023/06/23 08:32:16;;;;;;;;;;;;;;;25.37;44.34;101249.06;107929;1254;67038;-84
2023/06/23 08:34:43;;;;;;;;;;;;;;;25.31;44.52;101255.69;107848;1254;124262;-84
2023/06/23 08:37:10;;;;;;;;;;;;;;;25.28;44.50;101262.98;108141;1253;58994;-84
2023/06/23 08:39:44;;;;;;;;;;;;;;;25.30;44.68;101264.20;108467;1254;60105;-84
2023/06/23 08:42:12;;;;;;;;;;;;;;;25.31;45.01;101273.33;107489;1259;124136;-84
2023/06/23 08:44:41;;;;;;;;;;;;;;;25.37;45.35;101278.34;107521;1254;67198;-84
2023/06/23 08:47:14;;;;;;;;;;;;;;;25.44;45.51;101288.05;107374;1254;124600;-84
2023/06/23 08:49:43;;;;;;;;;;;;;;;25.47;45.04;101292.62;107542;1254;60659;-84
2023/06/23 08:52:20;;;;;;;;;;;;;;;25.46;44.87;101298.41;107429;1260;60162;-84
2023/06/23 08:54:49;;;;;;;;;;;;;;;25.43;44.58;101299.20;107583;1254;72552;-85
2023/06/23 08:57:16;;;;;;;;;;;;;;;25.40;44.12;101302.52;107932;1259;67081;-85
2023/06/23 08:59:43;;;;;;;;;;;;;;;25.32;43.89;101300.02;108252;1254;124191;-85
2023/06/23 09:02:11;;;;;;;;;;;;;;;25.19;43.98;101303.95;108136;1260;60205;-85
2023/06/23 09:04:38;;;;;;;;;;;;;;;25.05;43.90;101308.84;107916;1258;124056;-87
2023/06/23 09:07:05;;;;;;;;;;;;;;;24.99;44.47;101312.77;107843;1256;71732;-84
2023/06/23 09:09:32;;;;;;;;;;;;;;;24.95;44.69;101320.22;107946;1254;66886;-85
2023/06/23 09:12:01;;;;;;;;;;;;;;;24.93;45.08;101328.70;107793;1254;123977;-86
2023/06/23 09:14:29;;;;;;;;;;;;;;;24.91;45.90;101326.60;108311;1254;58674;-86
2023/06/23 09:16:57;;;;;;;;;;;;;;;24.91;46.84;101324.98;108232;1253;123913;-87
2023/06/23 09:19:24;;;;;;;;;;;;;;;24.89;47.46;101331.50;107791;1253;73954;-86
2023/06/23 09:21:51;;;;;;;;;;;;;;;24.87;47.94;101331.02;107913;1254;66850;-86
2023/06/23 09:24:24;;;;;;;;;;;;;;;24.83;48.66;101333.63;107602;1254;123944;-86
2023/06/23 09:26:52;;;;;;;;;;;;;;;24.75;49.01;101331.30;107810;1253;60122;-86
2023/06/23 09:29:24;;;;;;;;;;;;;;;24.68;49.20;101335.97;107460;1253;123900;-86
2023/06/23 09:31:54;;;;;;;;;;;;;;;24.56;49.18;101336.62;107525;1254;73569;-85
2023/06/23 09:34:29;;;;;;;;;;;;;;;24.44;49.49;101337.58;107581;1254;124749;-89
2023/06/23 09:37:09;;;;;;;;;;;;;;;24.32;49.69;101333.73;107543;1254;73244;-85
2023/06/23 09:39:39;;;;;;;;;;;;;;;24.23;49.88;101330.52;107442;1254;60548;-85
2023/06/23 09:42:09;;;;;;;;;;;;;;;24.19;49.81;101327.58;107484;1253;124174;-83
2023/06/23 09:44:42;;;;;;;;;;;;;;;24.13;49.78;101333.80;107729;1254;72667;-85
2023/06/23 09:47:11;;;;;;;;;;;;;;;24.10;49.74;101334.39;107353;1253;124100;-85
2023/06/23 09:49:39;;;;;;;;;;;;;;;24.04;49.75;101335.41;107970;1254;71408;-84
2023/06/23 09:52:22;;;;;;;;;;;;;;;24.04;50.01;101336.48;108153;1254;59748;-85
2023/06/23 09:54:49;;;;;;;;;;;;;;;24.05;49.96;101334.32;107569;1254;60455;-84
2023/06/23 09:57:17;;;;;;;;;;;;;;;24.10;50.12;101332.23;107600;1255;72524;-85
2023/06/23 09:59:45;;;;;;;;;;;;;;;24.13;50.11;101332.20;107831;1253;124360;-85
2023/06/23 10:02:19;;;;;;;;;;;;;;;24.11;49.81;101332.58;107938;1253;72811;-86
2023/06/23 10:05:08;;;;;;;;;;;;;;;24.04;49.74;101335.23;107743;1254;124809;-85
2023/06/23 10:07:36;;;;;;;;;;;;;;;24.02;49.88;101335.98;107828;1254;58515;-85
2023/06/23 10:10:04;;;;;;;;;;;;;;;24.15;49.99;101335.55;109127;1257;73907;-84
2023/06/23 10:12:34;;;;;;;;;;;;;;;24.24;49.95;101326.91;107808;1254;124415;-86
2023/06/23 10:15:01;;;;;;;;;;;;;;;24.35;49.72;101326.14;108066;1253;72287;-86
2023/06/23 10:17:28;;;;;;;;;;;;;;;24.38;49.72;101327.49;107945;1253;124145;-86
2023/06/23 10:19:56;;;;;;;;;;;;;;;24.38;49.63;101329.11;108020;1254;60190;-87
2023/06/23 10:22:23;;;;;;;;;;;;;;;24.33;49.42;101332.98;107798;1254;124779;-85
2023/06/23 10:24:53;;;;;;;;;;;;;;;24.29;49.40;101332.38;108019;1253;65890;-87
2023/06/23 10:27:24;;;;;;;;;;;;;;;24.22;49.45;101326.23;107758;1259;72017;-87
2023/06/23 10:29:52;;;;;;;;;;;;;;;24.10;49.39;101329.20;108085;1254;124937;-87
2023/06/23 10:32:26;;;;;;;;;;;;;;;23.98;49.59;101328.40;108208;1254;61291;-88
2023/06/23 10:35:08;;;;;;;;;;;;;;;23.94;49.68;101331.16;107918;1254;124316;-86
2023/06/23 10:37:35;;;;;;;;;;;;;;;24.01;49.44;101331.01;107850;1254;66882;-86
2023/06/23 10:40:04;;;;;;;;;;;;;;;24.04;49.46;101333.97;107906;1254;72469;-86
2023/06/23 10:42:35;;;;;;;;;;;;;;;24.05;49.15;101334.68;107558;1254;124143;-85
2023/06/23 10:45:02;;;;;;;;;;;;;;;23.97;49.02;101335.59;107831;1258;61139;-85
2023/06/23 10:47:29;;;;;;;;;;;;;;;23.91;48.85;101332.65;107549;1254;124125;-88
2023/06/23 10:49:58;;;;;;;;;;;;;;;23.86;49.04;101331.33;107532;1253;65913;-87
2023/06/23 10:52:32;;;;;;;;;;;;;;;23.83;48.92;101333.71;107542;1254;125032;-87
2023/06/23 10:55:18;;;;;;;;;;;;;;;23.81;49.08;101333.04;107404;1253;61320;-88
2023/06/23 10:58:18;;;;;;;;;;;;;;;23.97;49.13;101332.52;107926;1254;59860;-86
2023/06/23 11:00:54;;;;;;;;;;;;;;;24.16;48.96;101334.79;107465;1254;74296;-87
2023/06/23 11:03:26;;;;;;;;;;;;;;;24.33;48.80;101329.76;107648;1253;65680;-87
2023/06/23 11:05:56;;;;;;;;;;;;;;;24.64;48.96;101330.14;107559;1254;124096;-86
2023/06/23 11:08:44;;;;;;;;;;;;;;;24.99;48.84;101324.78;107435;1254;61833;-91
2023/06/23 11:11:13;;;;;;;;;;;;;;;25.32;48.43;101317.27;107575;1253;124237;-89
2023/06/23 11:13:42;;;;;;;;;;;;;;;25.58;48.06;101314.40;107610;1253;74462;-86
2023/06/23 11:16:16;;;;;;;;;;;;;;;25.83;47.56;101313.86;107713;1254;65738;-85
2023/06/23 11:18:51;;;;;;;;;;;;;;;26.04;46.72;101312.19;107534;1254;124776;-86
2023/06/23 11:21:18;;;;;;;;;;;;;;;26.25;46.61;101315.88;107815;1254;61132;-86
2023/06/23 11:24:04;;;;;;;;;;;;;;;26.39;46.31;101314.34;107749;1254;124079;-86
2023/06/23 11:26:32;;;;;;;;;;;;;;;26.57;46.27;101313.23;107798;1254;74221;-88
2023/06/23 11:28:59;;;;;;;;;;;;;;;26.79;46.06;101313.61;107418;1253;124378;-87
2023/06/23 11:31:29;;;;;;;;;;;;;;;26.99;45.62;101312.21;107608;1254;72395;-85
2023/06/23 11:33:56;;;;;;;;;;;;;;;27.16;45.32;101315.23;107679;1254;60032;-86
2023/06/23 11:36:23;;;;;;;;;;;;;;;27.28;45.11;101315.38;107665;1258;124532;-85
2023/06/23 11:38:51;;;;;;;;;;;;;;;27.39;44.88;101318.42;107727;1254;73722;-88
2023/06/23 11:41:27;;;;;;;;;;;;;;;27.54;44.82;101320.71;107715;1253;124156;-90
2023/06/23 11:47:03;;;;;;;;;;;;;;;28.12;44.36;101322.16;107882;1254;124614;-88
2023/06/23 11:49:35;;;;;;;;;;;;;;;28.34;44.05;101321.33;107851;1254;61205;-85
2023/06/23 11:52:15;;;;;;;;;;;;;;;28.54;43.83;101317.11;107854;1254;73384;-86
2023/06/23 11:54:51;;;;;;;;;;;;;;;28.79;43.50;101315.48;107702;1256;67586;-85
2023/06/23 11:57:24;;;;;;;;;;;;;;;28.97;43.23;101312.95;107802;1254;73001;-85
2023/06/23 12:00:11;;;;;;;;;;;;;;;29.16;43.02;101304.56;107609;1254;125498;-87
2023/06/23 12:02:51;;;;;;;;;;;;;;;29.46;42.34;101302.16;107673;1253;61283;-89
2023/06/23 12:05:19;;;;;;;;;;;;;;;29.57;41.95;101299.30;107913;1253;124150;-90
2023/06/23 12:07:49;;;;;;;;;;;;;;;29.46;41.52;101295.82;107704;1254;66471;-86
2023/06/23 12:10:27;;;;;;;;;;;;;;;29.46;41.55;101289.30;107966;1253;64050;-89
2023/06/23 12:13:09;;;;;;;;;;;;;;;29.49;41.55;101285.72;108047;1254;61203;-88
2023/06/23 12:15:39;;;;;;;;;;;;;;;29.51;41.44;101282.60;107761;1254;60343;-87
2023/06/23 12:18:07;;;;;;;;;;;;;;;29.53;41.24;101279.23;107524;1259;124215;-86
2023/06/23 12:20:34;;;;;;;;;;;;;;;29.55;41.26;101271.02;107706;1254;60119;-85
2023/06/23 12:23:09;;;;;;;;;;;;;;;29.44;41.01;101270.40;107939;1253;124277;-86
2023/06/23 12:26:06;;;;;;;;;;;;;;;29.18;40.97;101272.28;107837;1254;60468;-87
2023/06/23 12:28:40;;;;;;;;;;;;;;;28.84;41.10;101272.52;107876;1254;60540;-86
2023/06/23 12:31:28;;;;;;;;;;;;;;;28.34;41.22;101273.11;107786;1253;73298;-86
2023/06/23 12:33:57;;;;;;;;;;;;;;;27.83;41.45;101279.45;107933;1254;67111;-85
2023/06/23 12:36:32;;;;;;;;;;;;;;;27.49;41.98;101281.27;107814;1254;72709;-86
2023/06/23 12:39:28;;;;;;;;;;;;;;;27.42;42.25;101276.45;107660;1254;59833;-87
2023/06/23 12:41:55;;;;;;;;;;;;;;;27.49;42.50;101274.79;107574;1254;124699;-86